createdAt,value
2019-02-18T00:02:59.246Z,43.69
2019-02-18T00:08:05.660Z,44.10
2019-02-18T00:13:12.569Z,44.22
2019-02-18T00:18:18.505Z,44.51
2019-02-18T00:23:24.221Z,44.87
2019-02-18T00:28:30.339Z,44.67
2019-02-18T00:33:37.670Z,44.67
2019-02-18T00:38:43.334Z,44.44
2019-02-18T00:43:49.308Z,44.55
2019-02-18T00:48:54.890Z,44.50
2019-02-18T00:54:00.677Z,44.36
2019-02-18T00:59:07.091Z,44.70
2019-02-18T01:04:12.948Z,45.25
2019-02-18T01:09:18.724Z,45.21
2019-02-18T01:14:24.510Z,45.43
2019-02-18T01:19:30.520Z,45.51
2019-02-18T01:24:36.320Z,45.84
2019-02-18T01:29:41.890Z,45.96
2019-02-18T01:34:48.682Z,45.92
2019-02-18T01:39:56.271Z,46.73
2019-02-18T01:45:02.060Z,46.71
2019-02-18T01:50:10.442Z,47.08
2019-02-18T01:55:16.205Z,47.23
2019-02-18T02:00:22.304Z,47.19
2019-02-18T02:05:28.520Z,47.71
2019-02-18T02:10:34.582Z,47.83
2019-02-18T02:15:41.693Z,47.78
2019-02-18T02:20:49.181Z,47.56
2019-02-18T02:25:55.889Z,47.73
2019-02-18T02:31:03.343Z,47.78
2019-02-18T02:36:09.279Z,47.98
2019-02-18T02:41:15.536Z,47.97
2019-02-18T02:46:21.361Z,47.73
2019-02-18T02:51:27.392Z,47.85
2019-02-18T02:56:33.607Z,47.61
2019-02-18T03:01:39.357Z,47.71
2019-02-18T03:06:45.336Z,47.66
2019-02-18T03:11:50.910Z,47.58
2019-02-18T03:16:56.521Z,47.51
2019-02-18T03:22:02.418Z,47.72
2019-02-18T03:27:08.206Z,48.29
2019-02-18T03:32:14.253Z,48.12
2019-02-18T03:37:19.993Z,48.32
2019-02-18T03:42:25.749Z,48.24
2019-02-18T03:47:31.985Z,48.34
2019-02-18T03:52:37.804Z,48.20
2019-02-18T03:57:43.370Z,48.04
2019-02-18T04:02:49.728Z,48.15
2019-02-18T04:07:55.349Z,48.18
2019-02-18T04:13:01.582Z,48.36
2019-02-18T04:18:07.144Z,48.39
2019-02-18T04:23:12.707Z,48.56
2019-02-18T04:28:18.555Z,48.76
2019-02-18T04:33:24.136Z,48.86
2019-02-18T04:38:30.544Z,49.01
2019-02-18T04:43:36.315Z,49.84
2019-02-18T04:48:42.048Z,49.48
2019-02-18T04:53:47.927Z,50.05
2019-02-18T04:58:53.841Z,50.19
2019-02-18T05:04:00.170Z,50.24
2019-02-18T05:09:06.602Z,50.52
2019-02-18T05:14:13.046Z,50.31
2019-02-18T05:19:19.258Z,50.94
2019-02-18T05:24:25.311Z,50.91
2019-02-18T05:29:30.984Z,51.17
2019-02-18T05:34:37.490Z,51.88
2019-02-18T05:39:43.085Z,51.95
2019-02-18T05:44:49.003Z,51.84
2019-02-18T05:49:54.653Z,52.15
2019-02-18T05:55:01.279Z,51.83
2019-02-18T06:00:10.391Z,52.60
2019-02-18T06:05:16.028Z,52.62
2019-02-18T06:10:22.373Z,53.18
2019-02-18T06:15:29.114Z,52.42
2019-02-18T06:20:34.865Z,53.08
2019-02-18T06:25:40.755Z,52.69
2019-02-18T06:30:46.338Z,52.66
2019-02-18T06:35:52.290Z,52.32
2019-02-18T06:40:58.939Z,52.04
2019-02-18T06:46:23.760Z,51.83
2019-02-18T06:51:29.730Z,51.95
2019-02-18T06:56:54.529Z,52.52
2019-02-18T07:02:02.579Z,52.27
2019-02-18T07:07:13.087Z,52.42
2019-02-18T07:12:26.322Z,51.97
2019-02-18T07:17:33.308Z,51.28
2019-02-18T07:22:40.130Z,51.05
2019-02-18T07:27:46.566Z,50.58
2019-02-18T07:32:52.989Z,50.90
2019-02-18T07:37:59.210Z,51.79
2019-02-18T07:43:05.834Z,51.60
2019-02-18T07:48:12.234Z,51.81
2019-02-18T07:53:18.120Z,51.41
2019-02-18T07:58:24.032Z,50.55
2019-02-18T08:03:30.195Z,50.23
2019-02-18T08:08:38.044Z,50.25
2019-02-18T08:13:45.912Z,49.43
2019-02-18T08:18:51.795Z,49.04
2019-02-18T08:24:00.251Z,48.79
2019-02-18T08:29:05.968Z,48.67
2019-02-18T08:34:11.919Z,47.92
2019-02-18T08:39:18.588Z,46.68
2019-02-18T08:44:24.860Z,46.50
2019-02-18T08:49:31.075Z,45.99
2019-02-18T08:54:37.547Z,45.21
2019-02-18T08:59:44.196Z,44.56
2019-02-18T09:04:50.849Z,44.04
2019-02-18T09:09:57.543Z,43.01
2019-02-18T09:15:04.007Z,42.76
2019-02-18T09:20:11.666Z,41.97
2019-02-18T09:25:19.023Z,41.30
2019-02-18T09:30:28.290Z,40.40
2019-02-18T09:35:34.645Z,39.28
2019-02-18T09:40:46.018Z,38.59
2019-02-18T09:45:49.659Z,37.66
2019-02-18T09:50:55.929Z,36.45
2019-02-18T09:56:01.821Z,35.44
2019-02-18T10:01:08.620Z,34.73
2019-02-18T10:06:14.571Z,34.26
2019-02-18T10:11:20.555Z,34.00
2019-02-18T10:16:26.802Z,33.21
2019-02-18T10:21:33.139Z,32.52
2019-02-18T10:26:39.188Z,31.34
2019-02-18T10:31:45.574Z,31.17
2019-02-18T10:36:53.599Z,29.76
2019-02-18T10:41:59.608Z,29.65
2019-02-18T10:47:06.185Z,29.04
2019-02-18T10:52:13.541Z,28.72
2019-02-18T10:57:19.573Z,28.67
2019-02-18T11:02:27.258Z,28.99
2019-02-18T11:07:33.440Z,28.95
2019-02-18T11:12:39.567Z,29.22
2019-02-18T11:17:45.855Z,29.46
2019-02-18T11:22:51.707Z,28.05
2019-02-18T11:27:58.154Z,27.38
2019-02-18T11:33:04.131Z,27.11
2019-02-18T11:38:10.411Z,27.17
2019-02-18T11:43:17.459Z,26.72
2019-02-18T11:48:24.292Z,28.58
2019-02-18T11:53:31.492Z,29.48
2019-02-18T11:58:37.723Z,24.99
2019-02-18T12:03:44.097Z,25.78
2019-02-18T12:08:50.986Z,24.28
2019-02-18T12:13:57.543Z,23.65
2019-02-18T12:19:03.406Z,23.11
2019-02-18T12:24:11.093Z,21.42
2019-02-18T12:29:26.284Z,23.34
2019-02-18T12:34:26.032Z,22.65
2019-02-18T12:39:33.802Z,22.46
2019-02-18T12:44:41.534Z,22.46
2019-02-18T12:49:51.035Z,21.14
2019-02-18T12:55:00.159Z,20.98
2019-02-18T13:00:17.594Z,22.10
2019-02-18T13:05:23.880Z,21.75
2019-02-18T13:10:35.076Z,22.18
2019-02-18T13:15:38.799Z,22.76
2019-02-18T13:20:44.679Z,22.28
2019-02-18T13:25:52.277Z,23.11
2019-02-18T13:30:59.934Z,23.17
2019-02-18T13:36:09.708Z,21.83
2019-02-18T13:41:15.625Z,22.53
2019-02-18T13:46:23.329Z,23.57
2019-02-18T13:51:30.465Z,23.20
2019-02-18T13:56:37.044Z,22.33
2019-02-18T14:01:43.400Z,22.74
2019-02-18T14:06:50.050Z,22.60
2019-02-18T14:11:56.442Z,22.21
2019-02-18T14:17:02.834Z,22.37
2019-02-18T14:22:09.813Z,22.84
2019-02-18T14:27:21.437Z,22.17
2019-02-18T14:32:30.009Z,22.10
2019-02-18T14:37:36.169Z,22.06
2019-02-18T14:42:42.455Z,22.14
2019-02-18T14:47:48.500Z,21.33
2019-02-18T14:52:54.174Z,22.05
2019-02-18T14:58:00.533Z,21.57
2019-02-18T15:03:08.767Z,21.08
2019-02-18T15:08:15.419Z,20.75
2019-02-18T15:13:21.431Z,21.44
2019-02-18T15:18:29.018Z,21.80
2019-02-18T15:23:39.215Z,21.29
2019-02-18T15:28:46.596Z,21.22
2019-02-18T15:33:52.961Z,21.55
2019-02-18T15:39:01.681Z,22.24
2019-02-18T15:44:10.950Z,22.13
2019-02-18T15:49:19.426Z,22.12
2019-02-18T15:54:25.923Z,22.40
2019-02-18T15:59:34.656Z,22.65
2019-02-18T16:04:41.047Z,22.96
2019-02-18T16:09:50.103Z,23.24
2019-02-18T16:14:56.548Z,23.77
2019-02-18T16:20:03.381Z,24.06
2019-02-18T16:25:24.198Z,25.39
2019-02-18T16:30:32.374Z,25.84
2019-02-18T16:35:38.273Z,26.47
2019-02-18T16:40:44.615Z,26.59
2019-02-18T16:45:50.754Z,27.15
2019-02-18T16:50:56.799Z,27.70
2019-02-18T16:56:03.226Z,27.51
2019-02-18T17:01:09.803Z,28.00
2019-02-18T17:06:16.168Z,28.36
2019-02-18T17:11:24.500Z,28.80
2019-02-18T17:16:30.839Z,29.06
2019-02-18T17:21:38.252Z,29.29
2019-02-18T17:26:44.165Z,29.51
2019-02-18T17:31:50.476Z,29.72
2019-02-18T17:36:56.935Z,29.89
2019-02-18T17:42:02.983Z,30.06
2019-02-18T17:47:09.605Z,30.23
2019-02-18T17:52:19.404Z,30.54
2019-02-18T17:57:25.399Z,31.26
2019-02-18T18:02:34.456Z,31.68
2019-02-18T18:07:40.776Z,32.08
2019-02-18T18:12:47.137Z,32.64
2019-02-18T18:17:53.335Z,32.95
2019-02-18T18:22:59.174Z,33.29
2019-02-18T18:28:06.414Z,33.59
2019-02-18T18:33:12.326Z,33.86
2019-02-18T18:38:18.399Z,34.26
2019-02-18T18:43:33.434Z,34.59
2019-02-18T18:48:32.804Z,35.04
2019-02-18T18:53:39.577Z,35.24
2019-02-18T18:58:47.477Z,35.33
2019-02-18T19:03:53.524Z,35.55
2019-02-18T19:08:59.993Z,35.79
2019-02-18T19:14:05.637Z,35.72
2019-02-18T19:19:12.839Z,36.16
2019-02-18T19:24:19.013Z,36.04
2019-02-18T19:29:24.952Z,36.60
2019-02-18T19:34:30.810Z,36.59
2019-02-18T19:39:36.743Z,36.59
2019-02-18T19:44:42.840Z,36.97
2019-02-18T19:49:49.471Z,36.92
2019-02-18T19:54:57.196Z,36.95
2019-02-18T20:00:03.110Z,37.62
2019-02-18T20:05:10.135Z,37.76
2019-02-18T20:10:15.943Z,38.07
2019-02-18T20:15:21.901Z,38.31
2019-02-18T20:20:28.282Z,38.15
2019-02-18T20:25:34.154Z,38.37
2019-02-18T20:30:40.129Z,38.35
2019-02-18T20:35:46.374Z,38.67
2019-02-18T20:40:52.487Z,39.11
2019-02-18T20:45:58.732Z,38.87
2019-02-18T20:51:05.502Z,39.37
2019-02-18T20:56:11.345Z,39.61
2019-02-18T21:01:17.419Z,39.52
2019-02-18T21:06:23.014Z,39.83
2019-02-18T21:11:28.894Z,39.90
2019-02-18T21:16:34.652Z,39.88
2019-02-18T21:21:42.440Z,40.10
2019-02-18T21:26:48.412Z,40.53
2019-02-18T21:31:54.228Z,40.63
2019-02-18T21:37:01.172Z,41.44
2019-02-18T21:42:07.790Z,41.75
2019-02-18T21:47:14.017Z,42.17
2019-02-18T21:52:19.964Z,43.56
2019-02-18T21:57:25.773Z,43.02
2019-02-18T22:02:31.985Z,43.20
2019-02-18T22:07:37.679Z,43.19
2019-02-18T22:12:43.881Z,43.08
2019-02-18T22:17:50.752Z,43.15
2019-02-18T22:22:56.380Z,42.86
2019-02-18T22:28:02.355Z,42.86
2019-02-18T22:33:10.020Z,43.25
2019-02-18T22:38:16.126Z,43.34
2019-02-18T22:43:22.526Z,43.79
2019-02-18T22:48:28.710Z,43.97
2019-02-18T22:53:34.458Z,44.37
2019-02-18T22:58:40.525Z,44.21
2019-02-18T23:03:46.278Z,44.97
2019-02-18T23:08:51.857Z,45.15
2019-02-18T23:13:57.734Z,45.27
2019-02-18T23:19:03.548Z,45.18
2019-02-18T23:24:09.177Z,45.44
2019-02-18T23:29:15.733Z,45.41
2019-02-18T23:34:21.910Z,46.10
2019-02-18T23:39:27.942Z,45.91
2019-02-18T23:44:33.889Z,45.87
2019-02-18T23:49:39.749Z,46.19
2019-02-18T23:54:45.682Z,46.83
2019-02-18T23:59:51.723Z,46.87
